Terminal Aerodrome Forecast
Issued by NWS

Home | Current Version | Previous Version | Text Only | Print | Product List | Glossary On
Versions: 1 2 3 4 5 6 7 8 9 10 11 12 13
000
FTAK31 PAJN 272300
TAFASI
TAF
PASI 272333Z 2800/2824 02015G22KT P6SM SKC
     FM280700 08007KT P6SM SKC
     FM281200 09005KT P6SM SKC=

USA.gov is the U.S. government's official web portal to all federal, state and local government web resources and services.